createdAt,value
2023-03-22T00:04:44.402Z,98809.62
2023-03-22T00:09:46.876Z,98819.41
2023-03-22T00:14:55.175Z,98802.19
2023-03-22T00:19:57.235Z,98797.95
2023-03-22T00:24:59.230Z,98799.17
2023-03-22T00:30:00.940Z,98793.30
2023-03-22T00:35:03.964Z,98782.85
2023-03-22T00:40:11.607Z,98775.67
2023-03-22T00:45:14.558Z,98767.39
2023-03-22T00:50:22.383Z,98762.70
2023-03-22T00:55:25.632Z,98749.17
2023-03-22T01:00:27.718Z,98752.20
2023-03-22T01:05:34.981Z,98746.73
2023-03-22T01:10:38.958Z,98744.91
2023-03-22T01:15:41.403Z,98744.74
2023-03-22T01:20:43.229Z,98745.78
2023-03-22T01:25:45.341Z,98744.17
2023-03-22T01:30:47.120Z,98739.34
2023-03-22T01:35:48.883Z,98739.95
2023-03-22T01:40:51.091Z,98732.77
2023-03-22T01:45:54.446Z,98729.47
2023-03-22T01:51:12.068Z,98732.09
2023-03-22T01:56:40.809Z,98725.27
2023-03-22T02:01:47.070Z,98716.11
2023-03-22T02:06:54.221Z,98709.60
2023-03-22T02:12:25.476Z,98703.85
2023-03-22T02:17:45.344Z,98700.80
2023-03-22T02:22:59.023Z,98694.08
2023-03-22T02:28:14.522Z,98684.05
2023-03-22T02:33:29.688Z,98679.21
2023-03-22T02:39:06.695Z,98675.87
2023-03-22T02:44:35.358Z,98674.61
2023-03-22T02:49:48.055Z,98667.00
2023-03-22T02:55:10.026Z,98663.47
2023-03-22T03:00:14.656Z,98663.04
2023-03-22T03:05:18.227Z,98666.71
2023-03-22T03:10:22.044Z,98666.80
2023-03-22T03:15:23.960Z,98671.92
2023-03-22T03:20:52.964Z,98678.93
2023-03-22T03:26:19.419Z,98683.48
2023-03-22T03:31:33.435Z,98679.00
2023-03-22T03:36:39.543Z,98673.97
2023-03-22T03:41:43.950Z,98666.05
2023-03-22T03:46:46.701Z,98664.70
2023-03-22T03:51:52.128Z,98664.81
2023-03-22T03:56:54.503Z,98674.48
2023-03-22T04:01:56.273Z,98673.70
2023-03-22T04:07:01.897Z,98670.45
2023-03-22T04:12:05.000Z,98671.70
2023-03-22T04:17:08.728Z,98668.88
2023-03-22T04:22:14.873Z,98667.63
2023-03-22T04:27:18.282Z,98666.98
2023-03-22T04:32:34.512Z,98670.30
2023-03-22T04:37:36.569Z,98668.55
2023-03-22T04:42:46.794Z,98671.73
2023-03-22T04:47:59.455Z,98667.39
2023-03-22T04:53:01.899Z,98672.67
2023-03-22T04:58:05.542Z,98668.56
2023-03-22T05:03:07.406Z,98671.46
2023-03-22T05:08:15.917Z,98678.20
2023-03-22T05:17:03.819Z,98677.43
2023-03-22T05:22:08.435Z,98676.69
2023-03-22T05:27:17.956Z,98674.96
2023-03-22T05:32:25.551Z,98674.65
2023-03-22T05:37:30.039Z,98672.95
2023-03-22T05:42:32.736Z,98674.23
2023-03-22T05:47:36.172Z,98675.03
2023-03-22T05:52:44.668Z,98674.22
2023-03-22T05:58:02.772Z,98672.35
2023-03-22T06:03:05.779Z,98672.77
2023-03-22T06:08:12.672Z,98676.95
2023-03-22T06:13:14.728Z,98681.69
2023-03-22T06:18:16.897Z,98682.36
2023-03-22T06:23:21.804Z,98680.75
2023-03-22T06:28:23.757Z,98682.64
2023-03-22T06:33:28.472Z,98684.32
2023-03-22T06:38:35.120Z,98684.19
2023-03-22T06:43:37.792Z,98683.27
2023-03-22T06:48:50.970Z,98685.15
2023-03-22T06:53:53.073Z,98683.65
2023-03-22T06:58:57.907Z,98684.45
2023-03-22T07:03:59.873Z,98686.52
2023-03-22T07:09:02.582Z,98686.11
2023-03-22T07:14:06.649Z,98688.83
2023-03-22T07:19:28.723Z,98693.61
2023-03-22T07:24:31.426Z,98692.37
2023-03-22T07:29:33.684Z,98688.33
2023-03-22T07:34:36.127Z,98682.54
2023-03-22T07:39:47.200Z,98677.83
2023-03-22T07:44:49.776Z,98672.80
2023-03-22T07:49:54.457Z,98678.46
2023-03-22T07:55:01.319Z,98678.67
2023-03-22T08:00:04.783Z,98668.07
2023-03-22T08:05:20.229Z,98665.99
2023-03-22T08:10:26.847Z,98660.16
2023-03-22T08:15:29.468Z,98662.96
2023-03-22T08:20:31.845Z,98667.11
2023-03-22T08:25:37.105Z,98660.35
2023-03-22T08:30:43.804Z,98660.52
2023-03-22T08:35:46.481Z,98652.61
2023-03-22T08:40:48.395Z,98649.30
2023-03-22T08:45:53.726Z,98647.42
2023-03-22T08:50:56.055Z,98647.80
2023-03-22T08:56:04.928Z,98652.83
2023-03-22T09:01:25.704Z,98657.44
2023-03-22T09:06:38.757Z,98649.42
2023-03-22T09:11:42.660Z,98641.98
2023-03-22T09:16:45.580Z,98636.89
2023-03-22T09:21:47.660Z,98636.20
2023-03-22T09:26:53.908Z,98631.65
2023-03-22T09:31:55.903Z,98628.04
2023-03-22T09:37:02.786Z,98620.95
2023-03-22T09:42:31.461Z,98610.09
2023-03-22T09:47:45.429Z,98613.06
2023-03-22T09:52:48.188Z,98617.11
2023-03-22T09:58:12.185Z,98612.24
2023-03-22T10:03:31.142Z,98609.06
2023-03-22T10:08:49.946Z,98605.31
2023-03-22T10:14:01.883Z,98596.45
2023-03-22T10:19:33.166Z,98588.25
2023-03-22T10:24:38.570Z,98586.26
2023-03-22T10:29:47.670Z,98587.29
2023-03-22T10:34:49.482Z,98586.33
2023-03-22T10:39:55.849Z,98580.98
2023-03-22T10:45:03.720Z,98578.76
2023-03-22T10:50:12.135Z,98577.55
2023-03-22T10:55:15.927Z,98576.77
2023-03-22T11:00:18.012Z,98578.59
2023-03-22T11:05:27.529Z,98576.90
2023-03-22T11:10:34.821Z,98574.45
2023-03-22T11:15:41.383Z,98567.98
2023-03-22T11:20:54.113Z,98561.11
2023-03-22T11:26:00.205Z,98559.02
2023-03-22T11:31:09.522Z,98553.15
2023-03-22T11:36:17.891Z,98548.14
2023-03-22T11:41:25.969Z,98539.85
2023-03-22T11:46:29.612Z,98534.27
2023-03-22T11:51:37.683Z,98527.59
2023-03-22T11:56:48.293Z,98520.49
2023-03-22T12:01:58.366Z,98514.52
2023-03-22T12:07:03.714Z,98499.14
2023-03-22T12:12:09.896Z,98499.28
2023-03-22T12:17:21.847Z,98496.33
2023-03-22T12:22:30.559Z,98495.04
2023-03-22T12:27:42.533Z,98492.93
2023-03-22T12:33:06.792Z,98490.06
2023-03-22T12:38:43.119Z,98481.04
2023-03-22T12:44:01.176Z,98474.09
2023-03-22T12:49:12.469Z,98471.77
2023-03-22T12:54:17.040Z,98465.63
2023-03-22T12:59:23.397Z,98465.64
2023-03-22T13:04:37.330Z,98456.86
2023-03-22T13:09:50.945Z,98452.64
2023-03-22T13:14:52.673Z,98447.52
2023-03-22T13:20:23.488Z,98447.14
2023-03-22T13:25:26.222Z,98441.63
2023-03-22T13:30:47.031Z,98441.21
2023-03-22T13:35:56.700Z,98439.48
2023-03-22T13:41:03.401Z,98430.63
2023-03-22T13:46:05.031Z,98428.30
2023-03-22T13:51:22.769Z,98417.67
2023-03-22T13:56:54.124Z,98417.38
2023-03-22T14:02:18.568Z,98408.31
2023-03-22T14:07:39.170Z,98404.59
2023-03-22T14:13:03.950Z,98401.19
2023-03-22T14:18:21.351Z,98399.13
